MST,Max TemperatureF,Mean TemperatureF,Min TemperatureF,Max Dew PointF,MeanDew PointF,Min DewpointF,Max Humidity, Mean Humidity, Min Humidity, Max Sea Level PressureIn, Mean Sea Level PressureIn, Min Sea Level PressureIn, Max VisibilityMiles, Mean VisibilityMiles, Min VisibilityMiles, Max Wind SpeedMPH, Mean Wind SpeedMPH, Max Gust SpeedMPH,PrecipitationIn, CloudCover, Events, WindDirDegrees
2013-12-1,60,40,20,24,21,18,92,56,20,30.17,30.03,29.79,10,10,9,14,7,16,0.00,0,,242
2013-12-2,66,47,28,29,25,22,72,46,20,29.84,29.68,29.50,10,10,9,18,9,23,0.00,0,,227
2013-12-3,68,46,24,29,23,14,81,49,16,29.68,29.51,29.36,10,9,3,35,9,45,0.00,2,,10
2013-12-4,24,17,9,13,5,-1,73,57,41,30.27,29.93,29.69,10,10,10,22,15,30,0.00,7,,4
2013-12-5,13,9,5,-2,-6,-8,69,56,42,30.36,30.30,30.23,10,10,10,12,7,18,0.00,6,,61
2013-12-6,15,12,9,1,-1,-5,69,59,48,30.51,30.42,30.25,10,10,6,22,11,27,0.00,8,,118
2013-12-7,20,14,8,10,4,-3,88,71,54,30.49,30.21,29.83,10,9,6,28,17,36,T,7,Snow,140
2013-12-8,23,12,0,11,7,-4,92,72,52,30.26,29.90,29.73,10,6,1,18,6,25,T,6,Snow,299
2013-12-9,23,8,-7,-1,-5,-11,83,58,33,30.41,30.34,30.24,10,9,7,12,3,11,T,0,,207
2013-12-10,51,24,-4,14,1,-8,79,44,9,30.37,30.21,30.00,10,10,9,24,6,31,0.00,0,,173
2013-12-11,41,25,8,18,11,3,80,54,28,30.59,30.47,30.32,10,10,10,21,6,27,0.00,2,,168
2013-12-12,54,31,8,15,10,3,83,52,20,30.43,30.23,29.94,10,10,10,13,5,15,0.00,0,,290
2013-12-13,58,35,11,18,12,6,76,45,14,30.09,29.90,29.75,10,10,10,25,8,31,0.00,1,,335
2013-12-14,50,34,17,23,16,8,88,56,24,30.32,30.24,30.10,10,10,9,23,10,27,0.00,1,,296
2013-12-15,58,35,11,16,12,7,80,49,17,30.30,30.19,30.11,10,10,10,16,9,20,0.00,0,,241
2013-12-16,67,43,19,16,12,9,68,40,11,30.23,30.16,30.06,10,10,10,15,7,17,0.00,0,,233
2013-12-17,57,37,17,17,14,9,74,47,19,30.44,30.28,30.07,10,10,10,15,7,15,0.00,0,,229
2013-12-18,66,44,22,19,15,13,60,37,14,30.04,29.84,29.65,10,10,10,14,7,17,0.00,0,,259
2013-12-19,57,42,26,24,19,15,81,53,24,29.88,29.66,29.47,10,9,5,26,9,33,0.00,2,,55
2013-12-20,33,24,14,18,11,6,75,59,43,29.96,29.86,29.77,10,10,10,17,8,20,0.00,4,,77
2013-12-21,38,22,6,19,12,2,88,64,40,29.90,29.74,29.60,10,10,10,13,5,17,0.00,2,,1
2013-12-22,41,27,12,19,14,9,88,61,34,30.18,30.11,29.93,10,10,9,17,7,22,0.00,0,,261
2013-12-23,34,23,11,16,12,6,80,64,47,30.56,30.38,30.20,10,10,5,18,7,24,0.00,3,,103
2013-12-24,62,35,8,29,20,4,84,51,17,30.34,30.14,29.95,10,8,0,41,9,51,0.00,4,,347
2013-12-25,47,29,11,22,15,8,88,60,31,30.48,30.40,30.30,10,10,10,14,7,22,0.00,0,,257
2013-12-26,59,35,11,12,9,5,80,47,14,30.39,30.32,30.23,10,10,10,13,6,16,0.00,0,,243
2013-12-27,58,35,12,12,8,5,70,43,15,30.41,30.28,30.11,10,10,9,13,5,16,0.00,0,,247
2013-12-28,59,36,12,23,14,6,73,47,20,30.16,29.96,29.76,10,10,7,30,9,37,0.00,1,,324
2013-12-29,29,19,8,17,13,3,92,74,55,30.40,30.27,30.10,10,6,1,24,7,30,0.02,5,Snow,12
2013-12-30,51,29,6,23,16,3,88,59,29,30.34,30.24,30.08,10,10,10,15,7,20,0.00,0,,247
2013-12-31,60,40,19,24,19,15,84,54,23,30.15,30.04,29.91,10,10,10,15,7,18,0.00,0,,231